Terminal Aerodrome Forecast
Issued by NWS

Home | Current Version | Previous Version | Graphics & Text | Print | Product List | Glossary On
Versions: 1 2 3 4 5 6 7 8 9 10 11 12 13 14 15
000
FTUS43 KGRB 202330
TAFAUW
TAF
KAUW 202330Z 2100/2124 25008KT P6SM SCT100 BKN140
     FM210300 27003KT P6SM SCT120 BKN200
     FM211300 28007KT P6SM FEW070 BKN200
     FM211600 28011KT P6SM SCT070 BKN200
     FM211900 30009KT P6SM BKN070 BKN120=

USA.gov is the U.S. government's official web portal to all federal, state and local government web resources and services.